createdAt,value
2018-02-23T00:00:48.899Z,22.50
2018-02-23T00:04:13.286Z,23.33
2018-02-23T00:07:47.718Z,25.13
2018-02-23T00:11:11.023Z,22.63
2018-02-23T00:14:34.353Z,23.33
2018-02-23T00:17:57.611Z,21.63
2018-02-23T00:21:20.909Z,22.70
2018-02-23T00:24:44.270Z,23.73
2018-02-23T00:28:07.583Z,23.97
2018-02-23T00:31:31.693Z,23.27
2018-02-23T00:34:55.930Z,22.47
2018-02-23T00:38:20.005Z,23.77
2018-02-23T00:41:44.050Z,23.60
2018-02-23T00:45:08.092Z,24.50
2018-02-23T00:48:32.164Z,23.40
2018-02-23T00:51:56.292Z,23.97
2018-02-23T00:55:19.663Z,23.73
2018-02-23T00:58:42.965Z,22.13
2018-02-23T01:02:06.253Z,22.73
2018-02-23T01:05:29.670Z,23.80
2018-02-23T01:08:53.671Z,23.53
2018-02-23T01:12:17.724Z,23.70
2018-02-23T01:15:41.006Z,24.60
2018-02-23T01:19:04.320Z,23.23
2018-02-23T01:22:27.600Z,22.80
2018-02-23T01:25:50.894Z,23.77
2018-02-23T01:29:14.185Z,22.70
2018-02-23T01:32:38.329Z,24.33
2018-02-23T01:36:02.449Z,23.43
2018-02-23T01:39:25.753Z,22.77
2018-02-23T01:42:49.848Z,22.50
2018-02-23T01:46:13.201Z,22.83
2018-02-23T01:49:37.275Z,22.97
2018-02-23T01:53:00.569Z,23.63
2018-02-23T02:04:23.287Z,22.37
2018-02-23T02:07:46.613Z,22.43
2018-02-23T02:11:10.045Z,23.17
2018-02-23T02:14:33.421Z,21.57
2018-02-23T02:17:56.783Z,22.03
2018-02-23T02:21:20.157Z,23.27
2018-02-23T02:24:43.475Z,24.67
2018-02-23T02:28:07.515Z,24.23
2018-02-23T02:31:30.827Z,23.00
2018-02-23T02:34:54.116Z,22.57
2018-02-23T02:38:18.146Z,24.83
2018-02-23T02:41:42.187Z,22.23
2018-02-23T02:45:06.310Z,23.07
2018-02-23T02:48:29.669Z,22.17
2018-02-23T02:51:53.056Z,22.47
2018-02-23T02:55:17.227Z,22.20
2018-02-23T02:58:40.505Z,23.17
2018-02-23T03:02:04.561Z,21.07
2018-02-23T03:05:28.634Z,22.20
2018-02-23T03:08:52.695Z,21.40
2018-02-23T03:12:16.787Z,21.93
2018-02-23T03:15:40.099Z,19.90
2018-02-23T03:19:03.390Z,20.50
2018-02-23T03:22:27.453Z,21.43
2018-02-23T03:25:50.725Z,20.00
2018-02-23T03:29:14.121Z,21.83
2018-02-23T03:32:37.495Z,19.93
2018-02-23T03:36:01.534Z,20.43
2018-02-23T03:39:25.579Z,22.47
2018-02-23T03:42:48.868Z,21.47
2018-02-23T03:46:12.161Z,20.50
2018-02-23T03:49:38.126Z,20.60
2018-02-23T03:53:01.497Z,20.97
2018-02-23T03:56:24.792Z,20.47
2018-02-23T03:59:48.127Z,19.93
2018-02-23T04:03:11.478Z,20.57
2018-02-23T04:06:35.645Z,20.73
2018-02-23T04:09:59.013Z,19.37
2018-02-23T04:13:22.303Z,20.17
2018-02-23T04:16:45.592Z,19.23
2018-02-23T04:20:08.869Z,18.73
2018-02-23T04:23:32.169Z,18.83
2018-02-23T04:26:55.453Z,20.37
2018-02-23T04:30:18.781Z,18.30
2018-02-23T04:33:42.842Z,20.00
2018-02-23T04:37:06.119Z,19.37
2018-02-23T04:40:29.416Z,19.43
2018-02-23T04:43:53.449Z,19.60
2018-02-23T04:47:17.577Z,19.23
2018-02-23T04:50:41.607Z,18.43
2018-02-23T04:54:05.664Z,19.60
2018-02-23T04:57:29.014Z,19.23
2018-02-23T05:00:52.382Z,18.10
2018-02-23T05:04:15.726Z,17.83
2018-02-23T05:07:39.069Z,19.07
2018-02-23T05:11:02.363Z,19.60
2018-02-23T05:14:26.526Z,19.40
2018-02-23T05:17:49.896Z,18.57
2018-02-23T05:21:13.222Z,18.97
2018-02-23T05:24:37.275Z,18.33
2018-02-23T05:28:00.571Z,19.57
2018-02-23T05:31:23.864Z,20.50
2018-02-23T05:34:47.551Z,18.57
2018-02-23T05:38:10.818Z,19.13
2018-02-23T05:41:34.223Z,18.80
2018-02-23T05:44:58.295Z,19.63
2018-02-23T05:48:21.669Z,19.33
2018-02-23T05:51:45.039Z,19.67
2018-02-23T05:55:08.338Z,20.10
2018-02-23T05:58:31.729Z,17.40
2018-02-23T06:01:55.081Z,19.10
2018-02-23T06:05:18.461Z,19.90
2018-02-23T06:08:41.781Z,20.27
2018-02-23T06:12:05.151Z,19.53
2018-02-23T06:19:31.107Z,21.43
2018-02-23T06:22:54.373Z,19.00
2018-02-23T06:26:17.706Z,21.53
2018-02-23T06:29:41.779Z,19.73
2018-02-23T06:33:05.108Z,20.47
2018-02-23T06:36:29.233Z,20.23
2018-02-23T06:39:52.542Z,18.97
2018-02-23T06:43:15.839Z,20.27
2018-02-23T06:46:39.914Z,21.00
2018-02-23T06:50:03.289Z,20.40
2018-02-23T06:53:26.597Z,19.93
2018-02-23T06:56:50.059Z,18.37
2018-02-23T07:00:13.347Z,19.30
2018-02-23T07:03:37.409Z,19.90
2018-02-23T07:07:00.752Z,18.47
2018-02-23T07:10:24.035Z,19.33
2018-02-23T07:13:48.107Z,18.53
2018-02-23T07:17:12.183Z,19.50
2018-02-23T07:20:35.557Z,18.70
2018-02-23T07:23:58.901Z,20.03
2018-02-23T07:27:22.191Z,20.27
2018-02-23T07:30:45.522Z,18.03
2018-02-23T07:34:09.609Z,19.43
2018-02-23T07:37:33.749Z,19.27
2018-02-23T07:40:57.832Z,19.80
2018-02-23T07:44:21.181Z,17.63
2018-02-23T07:47:44.485Z,19.80
2018-02-23T07:51:08.537Z,19.60
2018-02-23T07:54:31.831Z,19.67
2018-02-23T07:57:55.896Z,20.67
2018-02-23T08:01:19.307Z,18.93
2018-02-23T08:04:42.597Z,19.57
2018-02-23T08:08:05.909Z,18.53
2018-02-23T08:11:29.211Z,19.27
2018-02-23T08:14:52.557Z,20.13
2018-02-23T08:18:15.856Z,19.77
2018-02-23T08:21:39.182Z,19.77
2018-02-23T08:25:02.488Z,18.67
2018-02-23T08:28:29.487Z,19.20
2018-02-23T08:31:53.242Z,19.47
2018-02-23T08:35:18.499Z,19.30
2018-02-23T08:38:41.823Z,19.90
2018-02-23T08:42:05.283Z,20.13
2018-02-23T08:45:28.650Z,18.83
2018-02-23T08:48:52.099Z,19.30
2018-02-23T08:52:15.406Z,20.77
2018-02-23T08:55:38.786Z,19.53
2018-02-23T08:59:02.159Z,19.97
2018-02-23T09:02:25.543Z,20.57
2018-02-23T09:05:49.627Z,19.50
2018-02-23T09:09:13.705Z,20.03
2018-02-23T09:12:36.994Z,19.87
2018-02-23T09:16:01.108Z,19.90
2018-02-23T09:19:24.481Z,20.73
2018-02-23T09:22:47.815Z,21.20
2018-02-23T09:26:11.885Z,19.97
2018-02-23T09:29:35.153Z,20.83
2018-02-23T09:32:59.230Z,20.20
2018-02-23T09:36:22.509Z,20.10
2018-02-23T09:39:45.875Z,20.50
2018-02-23T09:43:09.145Z,19.30
2018-02-23T09:46:32.411Z,20.97
2018-02-23T09:49:55.782Z,20.60
2018-02-23T09:53:19.108Z,20.20
2018-02-23T09:56:43.189Z,18.57
2018-02-23T10:00:07.232Z,20.10
2018-02-23T10:03:31.325Z,20.03
2018-02-23T10:06:55.421Z,20.03
2018-02-23T10:10:18.720Z,20.27
2018-02-23T10:13:42.757Z,20.80
2018-02-23T10:17:06.911Z,18.73
2018-02-23T10:20:31.031Z,19.03
2018-02-23T10:23:54.301Z,19.90
2018-02-23T10:27:17.576Z,19.93
2018-02-23T10:30:41.620Z,20.03
2018-02-23T10:34:05.668Z,21.67
2018-02-23T10:37:28.943Z,20.10
2018-02-23T10:40:52.205Z,19.03
2018-02-23T10:44:15.491Z,20.53
2018-02-23T10:47:39.630Z,20.53
2018-02-23T10:51:02.905Z,20.13
2018-02-23T10:54:27.035Z,18.97
2018-02-23T10:57:50.357Z,18.67
2018-02-23T11:01:13.653Z,20.50
2018-02-23T11:04:36.920Z,20.43
2018-02-23T11:08:00.273Z,18.77
2018-02-23T11:11:24.301Z,19.90
2018-02-23T11:14:48.356Z,20.20
2018-02-23T11:18:12.398Z,20.50
2018-02-23T11:21:35.688Z,20.87
2018-02-23T11:24:59.024Z,21.20
2018-02-23T11:28:22.320Z,20.87
2018-02-23T11:31:45.697Z,20.77
2018-02-23T11:35:09.760Z,20.50
2018-02-23T11:38:33.028Z,22.10
2018-02-23T11:41:56.372Z,21.03
2018-02-23T11:45:19.642Z,21.17
2018-02-23T11:48:42.907Z,20.57
2018-02-23T11:52:06.343Z,19.43
2018-02-23T11:55:29.664Z,21.57
2018-02-23T11:58:53.724Z,20.60
2018-02-23T12:02:17.100Z,19.53
2018-02-23T12:05:40.472Z,20.60
2018-02-23T12:09:03.748Z,20.73
2018-02-23T12:12:27.888Z,22.43
2018-02-23T12:15:52.045Z,21.83
2018-02-23T12:19:15.387Z,22.07
2018-02-23T12:22:38.717Z,21.43
2018-02-23T12:26:02.843Z,19.23
2018-02-23T12:29:26.115Z,20.60
2018-02-23T12:32:50.147Z,20.57
2018-02-23T12:36:13.435Z,20.90
2018-02-23T12:39:37.552Z,20.10
2018-02-23T12:43:01.009Z,20.70
2018-02-23T12:46:24.345Z,21.83
2018-02-23T12:49:48.639Z,21.13
2018-02-23T12:53:12.770Z,20.63
2018-02-23T12:56:36.144Z,22.30
2018-02-23T12:59:59.479Z,20.60
2018-02-23T13:03:23.765Z,21.70
2018-02-23T13:06:47.906Z,22.07
2018-02-23T13:10:12.096Z,21.67
2018-02-23T13:13:36.198Z,21.23
2018-02-23T13:16:59.526Z,20.53
2018-02-23T13:20:22.940Z,20.93
2018-02-23T13:23:46.270Z,20.57
2018-02-23T13:27:15.372Z,20.40
2018-02-23T13:30:38.778Z,21.60
2018-02-23T13:34:03.012Z,20.90
2018-02-23T13:37:27.168Z,20.87
2018-02-23T13:44:50.232Z,21.77
2018-02-23T13:48:13.772Z,21.43
2018-02-23T13:51:37.228Z,22.73
2018-02-23T13:55:01.348Z,21.30
2018-02-23T13:58:25.896Z,21.77
2018-02-23T14:01:49.180Z,23.00
2018-02-23T14:05:12.553Z,22.60
2018-02-23T14:08:35.841Z,22.37
2018-02-23T14:12:00.832Z,20.80
2018-02-23T14:15:24.122Z,21.37
2018-02-23T14:18:47.409Z,23.30
2018-02-23T14:22:10.741Z,22.10
2018-02-23T14:25:34.777Z,21.70
2018-02-23T14:28:58.807Z,21.70
2018-02-23T14:32:22.065Z,21.43
2018-02-23T14:35:45.363Z,21.20
2018-02-23T14:39:08.689Z,21.70
2018-02-23T14:42:31.948Z,21.37
2018-02-23T14:45:56.086Z,20.97
2018-02-23T14:49:20.131Z,20.93
2018-02-23T14:52:43.464Z,22.00
2018-02-23T14:56:06.777Z,23.47
2018-02-23T14:59:30.117Z,21.70
2018-02-23T15:02:54.245Z,21.17
2018-02-23T15:06:17.517Z,20.93
2018-02-23T15:09:40.945Z,20.53
2018-02-23T15:13:04.993Z,20.27
2018-02-23T15:16:29.027Z,23.63
2018-02-23T15:19:52.328Z,21.87
2018-02-23T15:23:15.603Z,21.60
2018-02-23T15:26:39.656Z,22.20
2018-02-23T15:30:03.700Z,19.73
2018-02-23T15:33:26.978Z,21.57
2018-02-23T15:36:50.303Z,21.03
2018-02-23T15:40:13.623Z,21.43
2018-02-23T15:43:36.957Z,22.23
2018-02-23T15:47:01.009Z,21.23
2018-02-23T15:54:21.228Z,22.33
2018-02-23T15:57:55.222Z,21.50
2018-02-23T16:01:18.564Z,21.17
2018-02-23T16:04:41.852Z,23.27
2018-02-23T16:08:05.131Z,23.73
2018-02-23T16:11:28.484Z,21.60
2018-02-23T16:14:51.770Z,23.20
2018-02-23T16:18:15.049Z,22.33
2018-02-23T16:21:39.177Z,22.23
2018-02-23T16:25:02.585Z,23.93
2018-02-23T16:28:26.983Z,23.23
2018-02-23T16:31:50.483Z,22.57
2018-02-23T16:35:13.940Z,22.90
2018-02-23T16:38:37.426Z,21.43
2018-02-23T16:42:01.631Z,22.83
2018-02-23T16:45:25.001Z,23.27
2018-02-23T16:48:48.489Z,23.77
2018-02-23T16:52:12.774Z,23.30
2018-02-23T16:55:36.195Z,21.57
2018-02-23T16:58:59.598Z,21.87
2018-02-23T17:02:23.639Z,23.50
2018-02-23T17:05:47.036Z,23.20
2018-02-23T17:09:10.665Z,24.20
2018-02-23T17:12:34.715Z,24.50
2018-02-23T17:15:58.851Z,23.40
2018-02-23T17:19:22.890Z,21.17
2018-02-23T17:22:47.014Z,22.13
2018-02-23T17:26:11.146Z,23.70
2018-02-23T17:29:34.419Z,22.03
2018-02-23T17:32:58.556Z,23.33
2018-02-23T17:36:21.927Z,22.70
2018-02-23T17:39:45.200Z,22.67
2018-02-23T17:43:09.330Z,21.20
2018-02-23T17:46:32.776Z,23.63
2018-02-23T17:49:56.087Z,22.10
2018-02-23T17:53:20.199Z,22.60
2018-02-23T17:56:44.240Z,23.93
2018-02-23T18:00:07.630Z,22.53
2018-02-23T18:03:31.675Z,22.20
2018-02-23T18:06:54.991Z,22.47
2018-02-23T18:10:18.268Z,22.17
2018-02-23T18:13:41.669Z,24.00
2018-02-23T18:17:05.662Z,23.93
2018-02-23T18:20:29.252Z,21.37
2018-02-23T18:23:52.648Z,23.23
2018-02-23T18:27:17.036Z,22.07
2018-02-23T18:30:41.128Z,23.57
2018-02-23T18:34:05.317Z,23.97
2018-02-23T18:37:29.452Z,23.27
2018-02-23T18:40:53.502Z,22.53
2018-02-23T18:44:17.560Z,23.13
2018-02-23T18:47:40.995Z,22.70
2018-02-23T18:51:05.040Z,22.73
2018-02-23T18:54:29.094Z,24.00
2018-02-23T18:57:52.533Z,23.67
2018-02-23T19:01:15.908Z,25.47
2018-02-23T19:04:39.232Z,21.10
2018-02-23T19:08:03.362Z,22.87
2018-02-23T19:11:26.662Z,24.10
2018-02-23T19:14:49.947Z,22.57
2018-02-23T19:18:13.325Z,24.23
2018-02-23T19:21:37.419Z,23.43
2018-02-23T19:25:01.564Z,23.67
2018-02-23T19:28:25.848Z,23.07
2018-02-23T19:31:49.311Z,24.97
2018-02-23T19:35:13.465Z,22.27
2018-02-23T19:38:37.644Z,23.77
2018-02-23T19:42:02.068Z,23.23
2018-02-23T19:45:25.464Z,23.53
2018-02-23T19:48:49.542Z,23.70
2018-02-23T19:52:13.764Z,22.77
2018-02-23T19:55:37.144Z,25.13
2018-02-23T19:59:00.965Z,23.30
2018-02-23T20:02:24.476Z,22.70
2018-02-23T20:05:50.288Z,22.60
2018-02-23T20:09:14.622Z,22.00
2018-02-23T20:12:37.957Z,23.93
2018-02-23T20:16:02.304Z,22.03
2018-02-23T20:19:26.347Z,21.73
2018-02-23T20:22:49.697Z,22.17
2018-02-23T20:26:14.658Z,22.47
2018-02-23T20:29:38.107Z,21.93
2018-02-23T20:33:01.757Z,22.10
2018-02-23T20:36:25.253Z,21.20
2018-02-23T20:39:50.176Z,22.27
2018-02-23T20:43:14.782Z,23.73
2018-02-23T20:46:39.186Z,22.00
2018-02-23T20:50:02.524Z,22.50
2018-02-23T20:53:25.899Z,23.90
2018-02-23T20:56:49.295Z,22.37
2018-02-23T21:00:13.555Z,21.60
2018-02-23T21:03:38.072Z,23.17
2018-02-23T21:07:02.231Z,22.20
2018-02-23T21:10:25.719Z,22.47
2018-02-23T21:13:49.892Z,23.10
2018-02-23T21:17:13.386Z,22.10
2018-02-23T21:20:37.494Z,22.20
2018-02-23T21:24:01.606Z,22.70
2018-02-23T21:27:25.127Z,22.53
2018-02-23T21:30:50.302Z,22.67
2018-02-23T21:34:13.697Z,23.20
2018-02-23T21:38:03.128Z,23.20
2018-02-23T21:41:27.633Z,22.83
2018-02-23T21:44:51.239Z,24.93
2018-02-23T21:48:15.434Z,23.03
2018-02-23T21:51:39.689Z,23.93
2018-02-23T21:55:03.269Z,22.73
2018-02-23T21:58:26.762Z,23.83
2018-02-23T22:01:50.945Z,23.87
2018-02-23T22:05:14.345Z,24.00
2018-02-23T22:08:38.824Z,23.70
2018-02-23T22:12:03.052Z,24.93
2018-02-23T22:15:27.453Z,22.57
2018-02-23T22:18:51.746Z,25.07
2018-02-23T22:22:15.466Z,23.07
2018-02-23T22:25:39.092Z,23.83
2018-02-23T22:29:02.790Z,23.47
2018-02-23T22:32:27.300Z,24.73
2018-02-23T22:35:51.755Z,23.80
2018-02-23T22:39:17.259Z,24.03
2018-02-23T22:42:40.737Z,24.23
2018-02-23T22:46:19.521Z,23.53
2018-02-23T22:49:45.197Z,24.57
2018-02-23T22:53:12.526Z,25.30
2018-02-23T22:56:35.977Z,24.67
2018-02-23T23:00:04.289Z,24.30
2018-02-23T23:03:27.720Z,23.20
2018-02-23T23:06:53.305Z,24.27
2018-02-23T23:10:16.651Z,23.63
2018-02-23T23:13:39.963Z,22.80
2018-02-23T23:17:04.327Z,24.13
2018-02-23T23:20:28.404Z,25.80
2018-02-23T23:23:51.920Z,24.63
2018-02-23T23:27:15.439Z,26.00
2018-02-23T23:30:38.824Z,25.83
2018-02-23T23:34:03.302Z,25.87
2018-02-23T23:37:27.164Z,24.00
2018-02-23T23:40:52.320Z,24.77
2018-02-23T23:44:16.762Z,24.40
2018-02-23T23:47:40.920Z,22.37
2018-02-23T23:51:05.031Z,23.83
2018-02-23T23:54:28.400Z,24.20
2018-02-23T23:57:51.774Z,23.17
